Time;durP1;ratioP1;P1;durP2;ratioP2;P2;SDS_P1;SDS_P2;PMS_P1;PMS_P2;Temp;Humidity;BMP_temperature;BMP_pressure;BME280_temperature;BME280_humidity;BME280_pressure;Samples;Min_cycle;Max_cycle;Signal;HPM_P1;HPM_P2
2021/12/02 00:02:17;;;;;;;12.27;5.30;;;2.90;99.90;;;;;;4995938;28;20042;-83
2021/12/02 00:04:44;;;;;;;13.50;5.72;;;2.90;99.90;;;;;;4961896;28;20034;-83
2021/12/02 00:07:10;;;;;;;11.70;6.57;;;2.90;99.90;;;;;;4962009;28;20093;-83
2021/12/02 00:09:37;;;;;;;9.27;5.85;;;2.90;99.90;;;;;;4978277;28;20034;-83
2021/12/02 00:12:05;;;;;;;19.75;6.88;;;2.90;99.90;;;;;;4978235;28;20026;-84
2021/12/02 00:14:39;;;;;;;12.32;7.57;;;2.90;99.90;;;;;;4978042;28;20039;-82
2021/12/02 00:17:10;;;;;;;17.75;8.05;;;2.90;99.90;;;;;;4978113;28;20034;-84
2021/12/02 00:22:25;;;;;;;17.20;9.15;;;3.00;99.90;;;;;;4977804;28;20406;-83
2021/12/02 00:25:01;;;;;;;33.85;17.50;;;3.00;99.90;;;;;;4978053;28;20032;-83
2021/12/02 00:27:29;;;;;;;26.35;9.48;;;3.00;99.90;;;;;;4961808;28;20054;-83
2021/12/02 00:29:57;;;;;;;15.68;9.48;;;3.00;99.90;;;;;;4995379;28;20774;-83
2021/12/02 00:32:26;;;;;;;19.52;10.32;;;3.00;99.90;;;;;;4961552;28;20026;-83
2021/12/02 00:34:53;;;;;;;19.13;10.60;;;3.00;99.90;;;;;;4976444;28;20034;-83
2021/12/02 00:37:19;;;;;;;26.35;11.82;;;3.00;99.90;;;;;;4961563;28;20501;-83
2021/12/02 00:39:46;;;;;;;24.60;12.07;;;2.90;99.90;;;;;;4995261;28;20027;-83
2021/12/02 00:42:14;;;;;;;26.92;13.85;;;3.00;99.90;;;;;;4977889;28;20073;-83
2021/12/02 00:44:40;;;;;;;27.00;12.57;;;3.00;99.90;;;;;;4977264;28;20066;-84
2021/12/02 00:47:08;;;;;;;22.75;12.93;;;3.00;99.90;;;;;;4977813;28;20069;-84
2021/12/02 00:49:33;;;;;;;32.75;16.48;;;3.00;99.90;;;;;;4995223;28;20038;-83
2021/12/02 00:52:03;;;;;;;25.88;14.57;;;3.00;99.90;;;;;;4977586;28;20043;-86
2021/12/02 00:54:31;;;;;;;31.13;15.63;;;3.00;99.90;;;;;;4961390;28;20026;-86
2021/12/02 00:56:57;;;;;;;30.73;14.65;;;3.00;99.90;;;;;;4961181;28;20084;-85
2021/12/02 00:59:27;;;;;;;24.45;14.30;;;3.00;99.90;;;;;;4961393;28;20034;-86
2021/12/02 01:01:53;;;;;;;24.05;14.02;;;3.00;99.90;;;;;;4961436;28;20129;-85
2021/12/02 01:04:23;;;;;;;27.50;13.77;;;3.00;99.90;;;;;;4960939;28;20141;-85
2021/12/02 01:06:49;;;;;;;31.13;13.25;;;2.90;99.90;;;;;;4960856;28;20498;-85
2021/12/02 01:09:15;;;;;;;25.40;13.45;;;2.90;99.90;;;;;;4960164;28;20049;-85
2021/12/02 01:11:41;;;;;;;21.10;12.52;;;3.00;99.90;;;;;;4961142;28;20478;-86
2021/12/02 01:14:08;;;;;;;28.85;12.77;;;3.00;99.90;;;;;;4976956;28;20026;-85
2021/12/02 01:16:35;;;;;;;25.55;13.70;;;3.00;99.90;;;;;;4961538;28;20033;-85
2021/12/02 01:19:02;;;;;;;31.50;13.82;;;3.00;99.90;;;;;;4960523;28;20042;-86
2021/12/02 01:21:28;;;;;;;21.15;12.57;;;2.90;99.90;;;;;;4977249;28;20040;-85
2021/12/02 01:24:06;;;;;;;25.98;12.93;;;2.90;99.90;;;;;;4976787;28;20026;-84
2021/12/02 01:26:33;;;;;;;29.08;12.57;;;2.90;99.90;;;;;;4977802;28;20113;-86
2021/12/02 01:29:01;;;;;;;31.70;12.48;;;2.90;99.90;;;;;;4961527;28;20034;-87
2021/12/02 01:31:36;;;;;;;28.83;13.45;;;2.90;99.90;;;;;;4961582;28;20026;-87
2021/12/02 01:34:07;;;;;;;21.67;11.90;;;2.90;99.90;;;;;;4960962;28;20034;-86
2021/12/02 01:36:39;;;;;;;30.98;12.85;;;2.90;99.90;;;;;;4961023;28;20034;-88
2021/12/02 01:39:07;;;;;;;24.23;12.55;;;2.90;99.90;;;;;;4961742;28;20182;-86
2021/12/02 01:41:43;;;;;;;24.95;12.52;;;2.90;99.90;;;;;;4995044;28;20022;-87
2021/12/02 01:44:38;;;;;;;24.50;11.20;;;2.80;99.90;;;;;;4961176;28;20045;-86
2021/12/02 01:47:12;;;;;;;24.33;10.77;;;2.90;99.90;;;;;;4977314;28;20041;-87
2021/12/02 01:49:41;;;;;;;24.77;11.30;;;2.80;99.90;;;;;;4961260;28;20418;-86
2021/12/02 01:52:11;;;;;;;26.95;12.70;;;2.80;99.90;;;;;;4977171;28;20034;-87
2021/12/02 01:54:43;;;;;;;21.85;11.40;;;2.80;99.90;;;;;;4976838;28;20049;-84
2021/12/02 01:57:26;;;;;;;27.48;12.68;;;2.80;99.90;;;;;;4977131;28;20030;-85
2021/12/02 02:00:06;;;;;;;35.60;11.57;;;2.80;99.90;;;;;;4961358;28;20038;-86
2021/12/02 02:02:39;;;;;;;26.73;12.05;;;2.80;99.90;;;;;;4994491;28;20034;-86
2021/12/02 02:05:11;;;;;;;36.08;12.13;;;2.80;99.90;;;;;;4977099;28;20038;-86
2021/12/02 02:07:46;;;;;;;23.83;12.63;;;2.80;99.90;;;;;;4960609;28;20137;-87
2021/12/02 02:10:12;;;;;;;29.25;11.05;;;2.80;99.90;;;;;;4960740;28;20121;-87
2021/12/02 02:12:38;;;;;;;27.83;12.65;;;2.80;99.90;;;;;;4977433;28;20430;-87
2021/12/02 02:15:04;;;;;;;30.60;12.77;;;2.80;99.90;;;;;;4960707;28;20030;-87
2021/12/02 02:17:36;;;;;;;33.10;12.10;;;2.80;99.90;;;;;;4977053;28;20026;-86
2021/12/02 02:20:03;;;;;;;;;;;2.80;99.90;;;;;;4961036;28;20026;-86
2021/12/02 02:22:28;;;;;;;22.88;11.52;;;2.80;99.90;;;;;;4976789;28;19917;-86
2021/12/02 02:24:54;;;;;;;27.95;12.48;;;2.80;99.90;;;;;;4977039;28;20026;-87
2021/12/02 02:27:21;;;;;;;25.55;11.95;;;2.80;99.90;;;;;;4976802;28;20030;-87
2021/12/02 02:29:47;;;;;;;30.70;13.25;;;2.80;99.90;;;;;;4960695;28;20029;-87
2021/12/02 02:32:12;;;;;;;27.88;11.55;;;2.70;99.90;;;;;;4960944;28;20106;-87
2021/12/02 02:34:38;;;;;;;29.35;13.80;;;2.80;99.90;;;;;;4976492;28;20045;-86
2021/12/02 02:37:06;;;;;;;25.10;12.63;;;2.80;99.90;;;;;;4960932;28;20460;-86
2021/12/02 02:39:34;;;;;;;23.50;13.13;;;2.80;99.90;;;;;;4960567;28;20034;-87
2021/12/02 02:42:02;;;;;;;23.73;13.77;;;2.80;99.90;;;;;;4960635;28;20038;-86
2021/12/02 02:44:30;;;;;;;25.02;12.38;;;2.70;99.90;;;;;;4960610;28;20062;-87
2021/12/02 02:46:56;;;;;;;36.47;13.10;;;2.70;99.90;;;;;;4960777;28;20062;-87
2021/12/02 02:49:22;;;;;;;23.23;12.20;;;2.80;99.90;;;;;;4994209;28;20064;-86
2021/12/02 02:51:49;;;;;;;20.38;11.68;;;2.80;99.90;;;;;;4976581;28;20034;-86
2021/12/02 02:54:16;;;;;;;38.08;16.90;;;2.80;99.90;;;;;;4976569;28;20433;-86
2021/12/02 02:57:04;;;;;;;32.15;14.88;;;2.80;99.90;;;;;;4960488;28;20474;-86
2021/12/02 02:59:41;;;;;;;27.13;15.23;;;2.70;99.90;;;;;;4964202;28;20066;-87
2021/12/02 03:02:16;;;;;;;32.47;15.77;;;2.80;99.90;;;;;;4964072;28;20051;-87
2021/12/02 03:08:13;;;;;;;;;;;2.80;99.90;;;;;;4998176;28;20085;-85
2021/12/02 03:10:46;;;;;;;31.50;15.38;;;2.80;99.90;;;;;;4980438;28;19916;-86
2021/12/02 03:13:20;;;;;;;40.10;16.40;;;2.70;99.90;;;;;;4963878;28;20077;-87
2021/12/02 03:18:34;;;;;;;32.53;16.45;;;2.70;99.90;;;;;;4979248;28;20038;-87
2021/12/02 03:20:59;;;;;;;35.08;16.08;;;2.70;99.90;;;;;;4963811;28;20034;-86
2021/12/02 03:23:26;;;;;;;48.85;19.00;;;2.70;99.90;;;;;;4963378;28;20034;-87
2021/12/02 03:25:52;;;;;;;37.38;16.77;;;2.70;99.90;;;;;;4979717;28;20386;-87
2021/12/02 03:28:17;;;;;;;32.05;15.07;;;2.70;99.90;;;;;;4963442;28;20031;-87
2021/12/02 03:30:43;;;;;;;31.38;17.27;;;2.70;99.90;;;;;;4979593;28;20030;-87
2021/12/02 03:33:10;;;;;;;38.40;16.98;;;2.70;99.90;;;;;;4963157;28;20038;-87
2021/12/02 03:35:36;;;;;;;34.10;16.52;;;2.70;99.90;;;;;;4963383;28;20030;-86
2021/12/02 03:38:02;;;;;;;38.10;18.33;;;2.70;99.90;;;;;;4962732;28;20113;-87
2021/12/02 03:40:28;;;;;;;35.83;18.15;;;2.70;99.90;;;;;;4978968;28;20034;-87
2021/12/02 03:42:54;;;;;;;32.97;17.13;;;2.70;99.90;;;;;;4963126;28;20549;-87
2021/12/02 03:45:25;;;;;;;35.63;18.52;;;2.70;99.90;;;;;;4962767;28;20203;-87
2021/12/02 03:47:51;;;;;;;43.30;18.65;;;2.70;99.90;;;;;;4978873;28;20037;-87
2021/12/02 03:50:17;;;;;;;44.10;19.98;;;2.70;99.90;;;;;;4962432;28;20031;-87
2021/12/02 03:52:43;;;;;;;37.00;18.45;;;2.70;99.90;;;;;;4962864;28;20037;-87
2021/12/02 03:55:09;;;;;;;38.67;17.75;;;2.70;99.90;;;;;;4978333;28;20030;-86
2021/12/02 03:57:34;;;;;;;41.25;19.65;;;2.70;99.90;;;;;;4963169;28;20026;-86
2021/12/02 04:00:01;;;;;;;32.42;17.98;;;2.70;99.90;;;;;;4978849;28;20485;-86
2021/12/02 04:02:27;;;;;;;44.45;18.60;;;2.70;99.90;;;;;;4962704;28;20037;-87
2021/12/02 04:04:53;;;;;;;44.42;18.10;;;2.70;99.90;;;;;;4978177;28;20379;-86
2021/12/02 04:07:20;;;;;;;40.78;17.70;;;2.70;99.90;;;;;;4978793;28;20041;-86
2021/12/02 04:09:48;;;;;;;40.75;16.85;;;2.70;99.90;;;;;;4978441;28;19921;-86
2021/12/02 04:12:50;;;;;;;44.42;17.08;;;2.70;99.90;;;;;;4962567;28;20490;-85
2021/12/02 04:15:11;;;;;;;;;;;2.70;99.90;;;;;;4993020;28;20047;-86
2021/12/02 04:17:43;;;;;;;37.40;17.30;;;2.70;99.90;;;;;;4962265;28;19961;-86
2021/12/02 04:20:17;;;;;;;37.63;18.33;;;2.70;99.90;;;;;;4978162;28;20041;-86
2021/12/02 04:22:44;;;;;;;42.28;19.60;;;2.70;99.90;;;;;;4995545;28;20022;-86
2021/12/02 04:25:11;;;;;;;41.03;17.48;;;2.80;99.90;;;;;;4977544;28;20036;-85
2021/12/02 04:27:37;;;;;;;30.35;14.88;;;2.80;99.90;;;;;;4961414;28;20034;-86
2021/12/02 04:30:10;;;;;;;23.17;12.45;;;2.70;99.90;;;;;;4977445;28;20093;-84
2021/12/02 04:32:36;;;;;;;24.40;11.88;;;2.70;99.90;;;;;;4961370;28;20498;-84
2021/12/02 04:35:01;;;;;;;24.48;11.30;;;2.70;99.90;;;;;;4977316;28;20029;-85
2021/12/02 04:37:29;;;;;;;23.70;13.18;;;2.60;99.90;;;;;;4960938;28;20023;-85
2021/12/02 04:39:55;;;;;;;25.60;12.75;;;2.60;99.90;;;;;;4961174;28;20123;-85
2021/12/02 04:42:21;;;;;;;31.52;14.63;;;2.60;99.90;;;;;;4994577;28;20027;-85
2021/12/02 04:44:47;;;;;;;36.33;16.13;;;2.60;99.90;;;;;;4977223;28;20053;-86
2021/12/02 04:47:13;;;;;;;43.67;18.48;;;2.60;99.90;;;;;;4961153;28;20038;-86
2021/12/02 04:49:41;;;;;;;44.50;18.08;;;2.60;99.90;;;;;;4961155;28;20042;-87
2021/12/02 04:52:07;;;;;;;33.97;17.23;;;2.60;99.90;;;;;;4977434;28;20088;-86
2021/12/02 04:54:32;;;;;;;43.65;19.08;;;2.70;99.90;;;;;;4960957;28;20026;-85
2021/12/02 04:56:59;;;;;;;36.83;18.10;;;2.70;99.90;;;;;;4977587;28;20022;-85
2021/12/02 04:59:25;;;;;;;39.88;18.00;;;2.60;99.90;;;;;;4994935;28;20451;-86
2021/12/02 05:01:51;;;;;;;42.42;19.35;;;2.70;99.90;;;;;;4977413;28;20536;-86
2021/12/02 05:04:17;;;;;;;34.97;17.70;;;2.60;99.90;;;;;;4994693;28;20038;-86
2021/12/02 05:06:43;;;;;;;43.53;19.63;;;2.60;99.90;;;;;;4960767;28;20038;-86
2021/12/02 05:09:09;;;;;;;44.33;19.45;;;2.60;99.90;;;;;;4960828;28;20448;-86
2021/12/02 05:11:34;;;;;;;58.38;21.85;;;2.60;99.90;;;;;;4960616;28;20061;-85
2021/12/02 05:14:01;;;;;;;52.97;21.98;;;2.60;99.90;;;;;;4976913;28;20037;-86
2021/12/02 05:16:26;;;;;;;53.75;21.98;;;2.60;99.90;;;;;;4961012;28;20026;-87
2021/12/02 05:18:52;;;;;;;58.75;21.48;;;2.60;99.90;;;;;;4961131;28;20057;-86
2021/12/02 05:21:18;;;;;;;42.05;20.50;;;2.60;99.90;;;;;;4976543;28;20058;-86
2021/12/02 05:23:44;;;;;;;56.95;22.40;;;2.60;99.90;;;;;;4960786;28;20130;-86
2021/12/02 05:26:10;;;;;;;57.67;22.38;;;2.60;99.90;;;;;;4961509;28;20173;-86
2021/12/02 05:28:36;;;;;;;45.78;21.05;;;2.60;99.90;;;;;;4960702;28;20041;-86
2021/12/02 05:31:02;;;;;;;54.97;22.77;;;2.60;99.90;;;;;;4977243;28;20026;-86
2021/12/02 05:33:28;;;;;;;52.67;23.30;;;2.60;99.90;;;;;;4960798;28;20173;-85
2021/12/02 05:35:54;;;;;;;52.17;22.45;;;2.70;99.90;;;;;;4977077;28;20514;-86
2021/12/02 05:38:20;;;;;;;51.20;22.85;;;2.60;99.90;;;;;;4961114;28;20034;-86
2021/12/02 05:40:45;;;;;;;70.22;26.95;;;2.60;99.90;;;;;;4976909;28;20390;-86
2021/12/02 05:43:12;;;;;;;58.17;23.25;;;2.60;99.90;;;;;;4960562;28;20037;-86
2021/12/02 05:45:37;;;;;;;59.10;23.98;;;2.70;99.90;;;;;;4960874;28;20042;-86
2021/12/02 05:48:03;;;;;;;63.78;24.05;;;2.70;99.90;;;;;;4976640;28;20160;-86
2021/12/02 05:50:29;;;;;;;79.40;25.95;;;2.70;99.90;;;;;;4960561;28;20505;-86
2021/12/02 05:52:54;;;;;;;51.45;23.50;;;2.60;99.90;;;;;;4976743;28;20030;-86
2021/12/02 05:55:20;;;;;;;52.60;24.83;;;2.70;99.90;;;;;;4976893;28;20105;-86
2021/12/02 05:57:46;;;;;;;74.60;28.67;;;2.70;99.90;;;;;;4960569;28;20088;-86
2021/12/02 06:00:12;;;;;;;116.43;40.45;;;2.60;99.90;;;;;;4960441;28;20092;-85
2021/12/02 06:02:38;;;;;;;72.45;28.10;;;2.60;99.90;;;;;;4976909;28;20038;-86
2021/12/02 06:05:05;;;;;;;60.38;26.30;;;2.60;99.90;;;;;;4960426;28;20034;-85
2021/12/02 06:07:32;;;;;;;63.22;24.33;;;2.60;99.90;;;;;;4960291;28;20097;-85
2021/12/02 06:09:57;;;;;;;65.03;24.83;;;2.60;99.90;;;;;;4960462;28;20023;-86
2021/12/02 06:12:24;;;;;;;51.25;22.00;;;2.60;99.90;;;;;;4960343;28;20475;-86
2021/12/02 06:14:50;;;;;;;58.67;22.85;;;2.60;99.90;;;;;;4960182;28;20037;-86
2021/12/02 06:17:16;;;;;;;60.03;23.38;;;2.60;99.90;;;;;;4960372;28;20049;-86
2021/12/02 06:19:41;;;;;;;55.72;23.80;;;2.50;99.90;;;;;;4959932;28;20034;-85
2021/12/02 06:22:08;;;;;;;47.10;22.25;;;2.50;99.90;;;;;;4960207;28;20058;-85
2021/12/02 06:25:44;;;;;;;50.33;20.80;;;2.50;99.90;;;;;;4960043;28;20034;-86
2021/12/02 06:27:30;;;;;;;43.15;20.05;;;2.50;99.90;;;;;;4963254;28;20524;-85
2021/12/02 06:29:56;;;;;;;49.20;22.65;;;2.50;99.90;;;;;;4959440;28;20047;-86
2021/12/02 06:32:23;;;;;;;44.58;20.75;;;2.50;99.90;;;;;;4960615;28;20458;-85
2021/12/02 06:34:49;;;;;;;48.65;19.60;;;2.50;99.90;;;;;;4979914;28;20034;-85
2021/12/02 06:37:14;;;;;;;46.33;19.00;;;2.50;99.90;;;;;;4979869;28;20034;-85
2021/12/02 06:39:40;;;;;;;40.38;18.33;;;2.50;99.90;;;;;;4979382;28;20430;-85
2021/12/02 06:42:06;;;;;;;50.67;18.60;;;2.50;99.90;;;;;;4979677;28;20034;-86
2021/12/02 06:44:32;;;;;;;43.17;18.25;;;2.50;99.90;;;;;;4979538;28;20085;-86
2021/12/02 06:46:58;;;;;;;46.10;18.35;;;2.50;99.90;;;;;;4979446;28;20038;-85
2021/12/02 06:49:26;;;;;;;48.00;20.60;;;2.50;99.90;;;;;;4963125;28;20037;-85
2021/12/02 06:51:53;;;;;;;34.80;17.42;;;2.40;99.90;;;;;;4963387;28;20413;-84
2021/12/02 06:54:20;;;;;;;39.22;18.63;;;2.40;99.90;;;;;;4979029;28;20050;-84
2021/12/02 06:56:46;;;;;;;30.13;13.38;;;2.40;99.90;;;;;;4962800;28;20038;-84
2021/12/02 06:59:11;;;;;;;37.58;18.95;;;2.30;99.90;;;;;;4963517;28;20081;-84
2021/12/02 07:01:37;;;;;;;37.80;13.95;;;2.20;99.90;;;;;;4978927;28;20477;-84
2021/12/02 07:04:03;;;;;;;23.17;11.82;;;2.20;99.90;;;;;;4962976;28;20496;-84
2021/12/02 07:06:29;;;;;;;29.60;12.57;;;2.20;99.90;;;;;;4962565;28;20092;-84
2021/12/02 07:08:54;;;;;;;74.15;31.65;;;2.20;99.90;;;;;;4978838;28;20065;-84
2021/12/02 07:11:20;;;;;;;54.30;24.58;;;2.20;99.90;;;;;;4978819;28;20045;-84
2021/12/02 07:13:48;;;;;;;8.40;4.15;;;2.10;99.90;;;;;;4962442;28;20034;-86
2021/12/02 07:16:14;;;;;;;20.58;9.25;;;1.70;99.90;;;;;;4963020;28;20040;-86
2021/12/02 07:18:44;;;;;;;22.90;12.25;;;1.40;99.90;;;;;;4962544;28;20121;-85
2021/12/02 07:21:10;;;;;;;10.10;5.05;;;1.10;99.90;;;;;;4963791;28;20037;-85
2021/12/02 07:23:57;;;;;;;36.88;15.40;;;0.90;99.90;;;;;;4978463;28;20133;-84
2021/12/02 07:26:23;;;;;;;19.73;7.30;;;0.80;99.90;;;;;;4963127;28;20034;-85
2021/12/02 07:28:49;;;;;;;12.35;6.22;;;0.70;99.90;;;;;;4962634;28;20026;-86
2021/12/02 07:31:15;;;;;;;7.20;3.30;;;0.60;99.90;;;;;;4962985;28;20038;-86
2021/12/02 07:33:43;;;;;;;17.58;8.07;;;0.60;99.90;;;;;;4963206;28;20401;-86
2021/12/02 07:36:09;;;;;;;35.47;20.23;;;0.60;99.90;;;;;;4962899;28;20421;-86
2021/12/02 07:38:38;;;;;;;13.35;5.45;;;0.50;99.90;;;;;;4978883;28;20084;-86
2021/12/02 07:41:07;;;;;;;2.92;2.20;;;0.50;99.90;;;;;;4963560;28;20549;-87
2021/12/02 07:43:55;;;;;;;2.10;1.45;;;0.50;99.90;;;;;;4978428;28;20057;-87
2021/12/02 07:46:20;;;;;;;7.05;3.75;;;0.50;99.90;;;;;;4963454;28;20034;-86
2021/12/02 07:48:46;;;;;;;5.70;3.05;;;0.40;99.90;;;;;;4979362;28;20034;-86
2021/12/02 07:51:16;;;;;;;77.00;31.25;;;0.40;99.90;;;;;;4979027;28;20453;-86
2021/12/02 07:53:43;;;;;;;43.60;21.33;;;0.40;99.90;;;;;;4962879;28;20068;-87
2021/12/02 07:56:12;;;;;;;49.45;25.55;;;0.30;99.90;;;;;;4961260;28;20038;-83
2021/12/02 07:58:44;;;;;;;15.18;10.27;;;0.30;99.90;;;;;;4962305;28;20030;-83
2021/12/02 08:01:11;;;;;;;3.22;2.05;;;0.40;99.90;;;;;;4961774;28;20472;-83
2021/12/02 08:03:43;;;;;;;17.98;8.27;;;0.40;99.90;;;;;;4978058;28;20034;-82
2021/12/02 08:06:11;;;;;;;5.55;3.28;;;0.40;99.90;;;;;;4961694;28;20038;-83
2021/12/02 08:08:41;;;;;;;27.42;14.77;;;0.40;99.90;;;;;;4962017;28;20085;-82
2021/12/02 08:11:07;;;;;;;19.70;10.85;;;0.40;99.90;;;;;;4977966;28;20034;-82
2021/12/02 08:13:33;;;;;;;20.15;11.00;;;0.40;99.90;;;;;;4961455;28;20501;-83
2021/12/02 08:16:01;;;;;;;14.20;5.97;;;0.40;99.90;;;;;;4961283;28;20034;-83
2021/12/02 08:18:27;;;;;;;10.68;4.30;;;0.40;99.90;;;;;;4976782;28;20482;-83
2021/12/02 08:20:54;;;;;;;4.78;2.78;;;0.40;99.90;;;;;;4977693;28;20034;-83
2021/12/02 08:23:19;;;;;;;10.45;5.75;;;0.40;99.90;;;;;;4961354;28;20474;-83
2021/12/02 08:25:45;;;;;;;7.63;4.07;;;0.40;99.90;;;;;;4961732;28;20034;-83
2021/12/02 08:28:11;;;;;;;17.17;6.63;;;0.50;99.90;;;;;;4977430;28;20037;-83
2021/12/02 08:30:37;;;;;;;27.60;9.10;;;0.50;99.90;;;;;;4961376;28;20136;-82
2021/12/02 08:33:05;;;;;;;17.75;7.50;;;0.40;99.90;;;;;;4977756;28;20030;-83
2021/12/02 08:35:31;;;;;;;12.10;4.28;;;0.40;99.90;;;;;;4977449;28;20026;-83
2021/12/02 08:38:02;;;;;;;36.45;12.52;;;0.40;99.90;;;;;;4961416;28;20038;-83
2021/12/02 08:40:37;;;;;;;76.15;28.90;;;0.50;99.90;;;;;;4977302;28;20066;-83
2021/12/02 08:43:10;;;;;;;24.00;11.57;;;0.50;99.90;;;;;;4960881;28;20133;-83
2021/12/02 08:45:40;;;;;;;15.07;7.05;;;0.50;99.90;;;;;;4960591;28;20150;-83
2021/12/02 08:48:07;;;;;;;16.45;8.40;;;0.50;99.90;;;;;;4960539;28;20046;-83
2021/12/02 08:50:34;;;;;;;21.88;10.60;;;0.60;99.90;;;;;;4976784;28;20414;-83
2021/12/02 08:53:02;;;;;;;20.25;7.22;;;0.60;99.90;;;;;;4961609;28;20462;-82
2021/12/02 08:55:31;;;;;;;31.83;14.02;;;0.70;99.90;;;;;;4975469;28;20042;-82
2021/12/02 08:57:58;;;;;;;9.40;4.60;;;0.70;99.90;;;;;;4960552;28;20076;-82
2021/12/02 09:00:33;;;;;;;8.43;4.45;;;0.70;99.90;;;;;;4977045;28;20034;-82
2021/12/02 09:03:39;;;;;;;15.13;7.40;;;0.70;99.90;;;;;;4993657;28;20117;-82
2021/12/02 09:06:10;;;;;;;9.68;4.47;;;0.80;99.90;;;;;;4960463;28;20038;-83
2021/12/02 09:08:36;;;;;;;14.55;7.32;;;0.90;99.90;;;;;;4962277;28;20136;-83
2021/12/02 09:11:03;;;;;;;6.10;3.50;;;0.90;99.90;;;;;;4976982;28;20485;-82
2021/12/02 09:13:30;;;;;;;7.65;4.15;;;0.90;99.90;;;;;;4960424;28;20106;-83
2021/12/02 09:15:56;;;;;;;9.48;4.70;;;1.00;99.90;;;;;;4976282;28;20073;-82
2021/12/02 09:18:22;;;;;;;13.73;6.22;;;1.00;99.90;;;;;;4960320;28;20088;-82
2021/12/02 09:20:48;;;;;;;9.70;5.00;;;1.00;99.90;;;;;;4993766;28;20111;-82
2021/12/02 09:23:14;;;;;;;10.18;5.05;;;1.00;99.90;;;;;;4959975;28;20402;-82
2021/12/02 09:25:41;;;;;;;11.30;5.78;;;1.00;99.90;;;;;;4977382;28;20049;-82
2021/12/02 09:28:08;;;;;;;10.60;5.60;;;1.10;99.90;;;;;;4977067;28;20042;-81
2021/12/02 09:30:35;;;;;;;12.45;7.07;;;1.00;99.90;;;;;;4976475;28;20037;-82
2021/12/02 09:33:01;;;;;;;16.98;8.00;;;1.10;99.90;;;;;;4993642;28;20445;-81
2021/12/02 09:35:26;;;;;;;14.73;8.25;;;1.10;99.90;;;;;;4959757;28;20042;-81
2021/12/02 09:37:52;;;;;;;19.30;8.77;;;1.10;99.90;;;;;;4976160;28;20482;-81
2021/12/02 09:40:19;;;;;;;18.40;11.15;;;1.10;99.90;;;;;;4976100;28;20042;-82
2021/12/02 09:42:45;;;;;;;20.17;8.68;;;1.10;99.90;;;;;;4960250;28;20041;-82
2021/12/02 09:45:11;;;;;;;15.38;8.05;;;1.10;99.90;;;;;;4976175;28;20070;-82
2021/12/02 09:47:40;;;;;;;19.13;8.77;;;1.10;99.90;;;;;;4976303;28;20036;-82
2021/12/02 09:50:13;;;;;;;22.63;11.38;;;1.10;99.90;;;;;;4975761;28;20034;-82
2021/12/02 09:52:40;;;;;;;19.52;11.77;;;1.10;99.90;;;;;;4959470;28;20088;-83
2021/12/02 09:55:20;;;;;;;20.52;9.63;;;1.20;99.90;;;;;;4975898;28;20024;-83
2021/12/02 09:57:51;;;;;;;18.05;8.48;;;1.20;99.90;;;;;;4976878;28;20430;-83
2021/12/02 10:00:21;;;;;;;;;;;1.20;99.90;;;;;;4977302;28;20177;-82
2021/12/02 10:03:01;;;;;;;36.28;12.18;;;1.30;99.90;;;;;;4960341;28;19910;-84
2021/12/02 10:05:38;;;;;;;16.83;6.73;;;1.20;99.90;;;;;;4959821;28;20030;-83
2021/12/02 10:08:07;;;;;;;21.67;8.20;;;1.30;99.90;;;;;;4963371;28;20372;-83
2021/12/02 10:10:40;;;;;;;17.77;7.82;;;1.30;99.90;;;;;;4980245;28;20097;-84
2021/12/02 10:13:20;;;;;;;17.83;6.70;;;1.30;99.90;;;;;;4963811;28;20038;-83
2021/12/02 10:16:04;;;;;;;13.63;6.32;;;1.30;99.90;;;;;;4980159;28;20034;-83
2021/12/02 10:18:52;;;;;;;16.65;6.55;;;1.20;99.90;;;;;;4979350;28;20045;-83
2021/12/02 10:21:25;;;;;;;16.67;6.90;;;1.20;99.90;;;;;;4964387;28;20030;-83
2021/12/02 10:23:53;;;;;;;13.40;5.82;;;1.20;99.90;;;;;;4963340;28;20034;-84
2021/12/02 10:26:20;;;;;;;13.73;6.40;;;1.20;99.90;;;;;;4963355;28;20536;-84
2021/12/02 10:28:47;;;;;;;12.27;5.47;;;1.30;99.90;;;;;;4996766;28;20113;-84
2021/12/02 10:31:19;;;;;;;17.05;7.43;;;1.30;99.90;;;;;;4963258;28;20163;-84
2021/12/02 10:33:50;;;;;;;26.17;9.00;;;1.40;99.90;;;;;;4962758;28;20480;-84
2021/12/02 10:36:35;;;;;;;16.95;6.63;;;1.40;99.90;;;;;;4979364;28;20049;-84
2021/12/02 10:39:13;;;;;;;13.38;6.82;;;1.50;99.90;;;;;;4979584;28;20434;-84
2021/12/02 10:41:43;;;;;;;23.77;8.27;;;1.50;99.90;;;;;;4979405;28;20047;-85
2021/12/02 10:44:19;;;;;;;15.07;7.32;;;1.50;99.90;;;;;;4978630;28;20053;-84
2021/12/02 10:46:57;;;;;;;12.68;6.72;;;1.50;99.90;;;;;;4963003;28;20026;-84
2021/12/02 10:49:25;;;;;;;14.48;6.20;;;1.50;99.90;;;;;;4996866;28;20121;-85
2021/12/02 10:51:54;;;;;;;15.77;6.78;;;1.50;99.90;;;;;;4962926;28;20030;-84
2021/12/02 10:54:21;;;;;;;20.13;6.10;;;1.50;99.90;;;;;;4996416;28;20034;-85
2021/12/02 10:56:51;;;;;;;12.48;6.55;;;1.60;99.90;;;;;;4978526;28;20031;-84
2021/12/02 10:59:34;;;;;;;13.82;6.63;;;1.60;99.90;;;;;;4963107;28;20552;-85
2021/12/02 11:02:06;;;;;;;20.00;6.28;;;1.60;99.90;;;;;;4962856;28;20076;-84
2021/12/02 11:04:42;;;;;;;12.73;6.43;;;1.70;99.90;;;;;;4962563;28;20033;-84
2021/12/02 11:07:12;;;;;;;16.08;7.75;;;1.90;99.90;;;;;;4963037;28;20165;-85
2021/12/02 11:09:40;;;;;;;17.88;9.45;;;1.90;99.90;;;;;;4962976;28;20030;-85
2021/12/02 11:12:07;;;;;;;21.02;9.63;;;2.00;99.90;;;;;;4962833;28;20101;-85
2021/12/02 11:14:33;;;;;;;13.45;8.18;;;2.10;99.90;;;;;;4962494;28;20026;-84
2021/12/02 11:17:10;;;;;;;16.58;7.10;;;2.00;99.90;;;;;;4963186;28;20049;-84
2021/12/02 11:19:36;;;;;;;14.93;7.68;;;2.00;99.90;;;;;;4962297;28;20509;-84
2021/12/02 11:22:09;;;;;;;11.43;6.88;;;2.10;99.90;;;;;;4978601;28;20050;-84
2021/12/02 11:24:35;;;;;;;15.95;6.65;;;2.10;99.90;;;;;;4996060;28;20031;-84
2021/12/02 11:27:14;;;;;;;19.38;7.95;;;2.20;99.90;;;;;;4962807;28;20037;-84
2021/12/02 11:30:02;;;;;;;12.32;7.05;;;2.20;99.90;;;;;;4962617;28;20113;-84
2021/12/02 11:33:08;;;;;;;17.27;7.22;;;2.20;99.90;;;;;;4978635;28;20034;-84
2021/12/02 11:35:43;;;;;;;18.58;7.70;;;2.10;99.90;;;;;;4994267;28;20051;-84
2021/12/02 11:38:22;;;;;;;34.60;13.80;;;2.20;99.90;;;;;;4962616;28;20386;-84
2021/12/02 11:41:02;;;;;;;15.18;8.50;;;2.10;99.90;;;;;;4978351;28;20026;-85
2021/12/02 11:43:34;;;;;;;17.00;7.43;;;2.10;99.90;;;;;;4962295;28;20030;-83
2021/12/02 11:46:01;;;;;;;15.05;7.47;;;2.10;99.90;;;;;;4978368;28;20490;-84
2021/12/02 11:48:39;;;;;;;17.50;9.45;;;2.00;99.90;;;;;;4962499;28;20129;-85
2021/12/02 11:51:18;;;;;;;14.30;7.25;;;2.10;99.90;;;;;;4962194;28;20414;-85
2021/12/02 11:53:44;;;;;;;16.63;7.68;;;2.10;99.90;;;;;;4961733;28;20030;-84
2021/12/02 11:59:57;;;;;;;18.80;7.50;;;2.20;99.90;;;;;;4996342;28;20041;-84
2021/12/02 12:02:23;;;;;;;10.35;6.40;;;2.20;99.90;;;;;;4978179;28;20030;-84
2021/12/02 12:05:02;;;;;;;16.33;6.07;;;2.20;99.90;;;;;;4961198;28;20077;-84
2021/12/02 12:07:48;;;;;;;13.77;6.22;;;2.20;99.90;;;;;;4976504;28;20073;-84
2021/12/02 12:10:25;;;;;;;13.20;6.75;;;2.20;99.90;;;;;;4978107;28;20046;-85
2021/12/02 12:12:53;;;;;;;14.55;6.22;;;2.30;99.90;;;;;;4962019;28;20065;-84
2021/12/02 12:15:58;;;;;;;10.25;6.22;;;2.20;99.90;;;;;;4961450;28;20097;-84
2021/12/02 12:18:26;;;;;;;10.48;5.78;;;2.30;99.90;;;;;;4922969;29;20051;-84
2021/12/02 12:21:07;;;;;;;8.50;5.32;;;2.20;99.90;;;;;;4968276;28;20096;-85
2021/12/02 12:24:00;;;;;;;12.25;6.15;;;2.20;99.90;;;;;;4961447;28;20034;-84
2021/12/02 12:27:06;;;;;;;16.25;6.13;;;2.30;99.90;;;;;;4961623;28;20046;-84
2021/12/02 12:29:32;;;;;;;17.17;7.90;;;2.30;99.90;;;;;;4961463;28;20490;-84
2021/12/02 12:35:02;;;;;;;10.50;6.03;;;2.40;99.90;;;;;;4981190;28;20038;-84
2021/12/02 12:37:46;;;;;;;12.07;5.97;;;2.30;99.90;;;;;;4960927;28;20035;-84
2021/12/02 12:40:20;;;;;;;11.00;5.40;;;2.40;99.90;;;;;;4961017;28;20066;-84
2021/12/02 12:42:48;;;;;;;12.02;6.10;;;2.50;99.90;;;;;;4960942;28;20481;-84
2021/12/02 12:45:31;;;;;;;11.18;5.80;;;2.50;99.90;;;;;;4960969;28;20076;-85
2021/12/02 12:48:02;;;;;;;9.73;5.93;;;2.60;99.90;;;;;;4977167;28;20026;-84
2021/12/02 12:50:38;;;;;;;18.77;6.25;;;2.70;99.90;;;;;;4977975;28;20033;-84
2021/12/02 12:53:15;;;;;;;15.82;7.38;;;2.70;99.90;;;;;;4960525;28;20053;-84
2021/12/02 12:55:52;;;;;;;12.98;6.93;;;2.80;99.90;;;;;;4961392;28;20034;-84
2021/12/02 12:58:31;;;;;;;24.50;8.27;;;2.80;99.90;;;;;;4960845;28;20034;-84
2021/12/02 13:01:00;;;;;;;19.92;7.43;;;2.80;99.90;;;;;;4993951;28;20478;-85
2021/12/02 13:03:43;;;;;;;13.68;7.20;;;2.70;99.90;;;;;;4976769;28;20038;-85
2021/12/02 13:06:20;;;;;;;30.73;15.73;;;2.80;99.90;;;;;;4960643;28;20034;-84
2021/12/02 13:08:54;;;;;;;21.02;14.07;;;2.70;99.90;;;;;;4976913;28;20074;-85
2021/12/02 13:11:23;;;;;;;27.08;14.48;;;2.60;99.90;;;;;;4960416;28;20042;-84
2021/12/02 13:13:51;;;;;;;26.35;10.50;;;2.60;99.90;;;;;;4960293;28;20434;-84